Time,TemperatureF,DewpointF,PressureIn,WindDirection,WindDirectionDegrees,WindSpeedMPH,WindSpeedGustMPH,Humidity,HourlyPrecipIn,Conditions,Clouds,dailyrainin,SoftwareType,DateUTC
2013-05-14 00:01:00,63.0,29.0,-100.00,West,263,9.0,9.0,27,-99.99,,,-99.99,,2013-05-14 06:01:00,
2013-05-14 00:12:00,67.0,27.0,-100.00,West,268,7.0,9.0,22,-99.99,,,-99.99,,2013-05-14 06:12:00,
2013-05-14 00:22:00,62.0,29.0,-100.00,West,263,10.0,10.0,28,-99.99,,,-99.99,,2013-05-14 06:22:00,
2013-05-14 00:31:00,63.0,29.0,-100.00,West,265,10.0,10.0,27,-99.99,,,-99.99,,2013-05-14 06:31:00,
2013-05-14 00:42:00,62.0,29.0,-100.00,West,259,10.0,10.0,28,-99.99,,,-99.99,,2013-05-14 06:42:00,
2013-05-14 00:51:00,63.0,28.0,-100.00,West,264,11.0,11.0,26,-99.99,,,-99.99,,2013-05-14 06:51:00,
2013-05-14 01:01:00,63.0,28.0,-100.00,West,262,12.0,12.0,27,-99.99,,,-99.99,,2013-05-14 07:01:00,
2013-05-14 01:11:00,62.0,29.0,-100.00,West,260,10.0,10.0,28,-99.99,,,-99.99,,2013-05-14 07:11:00,
2013-05-14 01:21:00,62.0,29.0,-100.00,West,260,10.0,10.0,28,-99.99,,,-99.99,,2013-05-14 07:21:00,
2013-05-14 01:31:00,63.0,28.0,-100.00,WSW,252,11.0,11.0,26,-99.99,,,-99.99,,2013-05-14 07:31:00,
2013-05-14 01:41:00,62.0,28.0,-100.00,WSW,254,9.0,11.0,27,-99.99,,,-99.99,,2013-05-14 07:41:00,
2013-05-14 01:52:00,62.0,29.0,-100.00,WSW,245,9.0,10.0,28,-99.99,,,-99.99,,2013-05-14 07:52:00,
2013-05-14 02:02:00,63.0,27.0,-100.00,WSW,251,9.0,11.0,25,-99.99,,,-99.99,,2013-05-14 08:02:00,
2013-05-14 02:11:00,62.0,28.0,-100.00,WSW,249,9.0,9.0,27,-99.99,,,-99.99,,2013-05-14 08:11:00,
2013-05-14 02:21:00,63.0,27.0,-100.00,West,261,10.0,12.0,25,-99.99,,,-99.99,,2013-05-14 08:21:00,
2013-05-14 02:31:00,63.0,28.0,-100.00,WSW,245,8.0,11.0,26,-99.99,,,-99.99,,2013-05-14 08:31:00,
2013-05-14 02:41:00,63.0,28.0,-100.00,WSW,250,10.0,11.0,26,-99.99,,,-99.99,,2013-05-14 08:41:00,
2013-05-14 02:51:00,62.0,27.0,-100.00,WSW,248,10.0,11.0,26,-99.99,,,-99.99,,2013-05-14 08:51:00,
2013-05-14 03:01:00,63.0,27.0,-100.00,WSW,256,12.0,13.0,26,-99.99,,,-99.99,,2013-05-14 09:01:00,
2013-05-14 03:11:00,62.0,27.0,-100.00,WSW,256,10.0,11.0,26,-99.99,,,-99.99,,2013-05-14 09:11:00,
2013-05-14 03:21:00,62.0,27.0,-100.00,WSW,248,11.0,12.0,27,-99.99,,,-99.99,,2013-05-14 09:21:00,
2013-05-14 03:32:00,63.0,28.0,-100.00,WSW,256,11.0,14.0,26,-99.99,,,-99.99,,2013-05-14 09:32:00,
2013-05-14 03:44:00,61.0,28.0,-100.00,WSW,253,9.0,10.0,28,-99.99,,,-99.99,,2013-05-14 09:44:00,
2013-05-14 03:54:00,61.0,28.0,-100.00,WSW,250,9.0,10.0,27,-99.99,,,-99.99,,2013-05-14 09:54:00,
2013-05-14 04:04:00,60.0,28.0,-100.00,WSW,244,9.0,9.0,28,-99.99,,,-99.99,,2013-05-14 10:04:00,
2013-05-14 04:14:00,61.0,28.0,-100.00,WSW,253,10.0,10.0,28,-99.99,,,-99.99,,2013-05-14 10:14:00,
2013-05-14 04:25:00,63.0,27.0,-100.00,WSW,257,13.0,13.0,25,-99.99,,,-99.99,,2013-05-14 10:25:00,
2013-05-14 04:32:00,63.0,27.0,-100.00,West,260,12.0,15.0,25,-99.99,,,-99.99,,2013-05-14 10:32:00,
2013-05-14 04:42:00,63.0,26.0,-100.00,West,265,13.0,13.0,24,-99.99,,,-99.99,,2013-05-14 10:42:00,
2013-05-14 04:52:00,62.0,27.0,-100.00,West,262,11.0,12.0,26,-99.99,,,-99.99,,2013-05-14 10:52:00,
2013-05-14 05:02:00,61.0,27.0,-100.00,West,272,12.0,12.0,26,-99.99,,,-99.99,,2013-05-14 11:02:00,
2013-05-14 05:11:00,61.0,27.0,-100.00,West,272,12.0,12.0,26,-99.99,,,-99.99,,2013-05-14 11:11:00,
2013-05-14 05:21:00,63.0,26.0,-100.00,West,268,10.0,11.0,24,-99.99,,,-99.99,,2013-05-14 11:21:00,
2013-05-14 05:32:00,64.0,27.0,-100.00,WSW,257,9.0,9.0,24,-99.99,,,-99.99,,2013-05-14 11:32:00,
2013-05-14 05:43:00,64.0,27.0,-100.00,West,259,9.0,9.0,23,-99.99,,,-99.99,,2013-05-14 11:43:00,
2013-05-14 05:52:00,64.0,27.0,-100.00,WSW,244,10.0,10.0,24,-99.99,,,-99.99,,2013-05-14 11:52:00,
2013-05-14 06:02:00,62.0,28.0,-100.00,WSW,257,6.0,9.0,28,-99.99,,,-99.99,,2013-05-14 12:02:00,
2013-05-14 06:12:00,60.0,28.0,-100.00,NNW,343,6.0,7.0,29,-99.99,,,-99.99,,2013-05-14 12:12:00,
2013-05-14 06:21:00,59.0,28.0,-100.00,NNE,27,5.0,5.0,29,-99.99,,,-99.99,,2013-05-14 12:21:00,
2013-05-14 06:31:00,60.0,27.0,-100.00,NNW,345,6.0,7.0,28,-99.99,,,-99.99,,2013-05-14 12:31:00,
2013-05-14 06:42:00,60.0,27.0,-100.00,North,357,6.0,8.0,28,-99.99,,,-99.99,,2013-05-14 12:42:00,
2013-05-14 06:51:00,58.0,28.0,-100.00,NNW,338,8.0,8.0,32,-99.99,,,-99.99,,2013-05-14 12:51:00,
2013-05-14 07:01:00,60.0,27.0,-100.00,North,6,5.0,10.0,28,-99.99,,,-99.99,,2013-05-14 13:01:00,
2013-05-14 07:11:00,59.0,28.0,-100.00,WSW,245,2.0,3.0,30,-99.99,,,-99.99,,2013-05-14 13:11:00,
2013-05-14 07:22:00,59.0,28.0,-100.00,North,351,2.0,5.0,30,-99.99,,,-99.99,,2013-05-14 13:22:00,
2013-05-14 07:32:00,59.0,28.0,-100.00,North,351,2.0,5.0,30,-99.99,,,-99.99,,2013-05-14 13:32:00,
2013-05-14 07:41:00,60.0,29.0,-100.00,North,356,2.0,3.0,31,-99.99,,,-99.99,,2013-05-14 13:41:00,
2013-05-14 07:52:00,60.0,31.0,-100.00,NNE,30,2.0,3.0,32,-99.99,,,-99.99,,2013-05-14 13:52:00,
2013-05-14 08:01:00,61.0,29.0,-100.00,NE,52,3.0,4.0,30,-99.99,,,-99.99,,2013-05-14 14:01:00,
2013-05-14 08:11:00,62.0,28.0,-100.00,North,353,3.0,4.0,27,-99.99,,,-99.99,,2013-05-14 14:11:00,
2013-05-14 08:31:00,63.0,31.0,-100.00,NNE,14,6.0,6.0,30,-99.99,,,-99.99,,2013-05-14 14:31:00,
2013-05-14 08:41:00,63.0,33.0,-100.00,NNE,20,3.0,4.0,32,-99.99,,,-99.99,,2013-05-14 14:41:00,
2013-05-14 08:52:00,63.0,31.0,-100.00,NE,43,7.0,7.0,30,-99.99,,,-99.99,,2013-05-14 14:52:00,
2013-05-14 09:01:00,64.0,33.0,-100.00,NE,48,7.0,7.0,31,-99.99,,,-99.99,,2013-05-14 15:01:00,
2013-05-14 09:11:00,65.0,33.0,-100.00,NNE,32,9.0,10.0,29,-99.99,,,-99.99,,2013-05-14 15:11:00,
2013-05-14 09:21:00,64.0,37.0,-100.00,NE,52,8.0,8.0,37,-99.99,,,-99.99,,2013-05-14 15:21:00,
2013-05-14 09:32:00,65.0,33.0,-100.00,NE,36,9.0,10.0,29,-99.99,,,-99.99,,2013-05-14 15:32:00,
2013-05-14 09:43:00,66.0,34.0,-100.00,NE,40,11.0,11.0,31,-99.99,,,-99.99,,2013-05-14 15:43:00,
2013-05-14 09:53:00,66.0,30.0,-100.00,NE,35,10.0,11.0,25,-99.99,,,-99.99,,2013-05-14 15:53:00,
2013-05-14 10:02:00,67.0,32.0,-100.00,NE,41,9.0,10.0,27,-99.99,,,-99.99,,2013-05-14 16:02:00,
2013-05-14 10:12:00,68.0,31.0,-100.00,NNE,29,10.0,11.0,25,-99.99,,,-99.99,,2013-05-14 16:12:00,
2013-05-14 10:23:00,68.0,31.0,-100.00,NNE,29,11.0,12.0,25,-99.99,,,-99.99,,2013-05-14 16:23:00,
2013-05-14 10:33:00,68.0,31.0,-100.00,NE,41,12.0,12.0,25,-99.99,,,-99.99,,2013-05-14 16:33:00,
2013-05-14 10:43:00,69.0,32.0,-100.00,NE,45,11.0,12.0,26,-99.99,,,-99.99,,2013-05-14 16:43:00,
2013-05-14 10:54:00,69.0,29.0,-100.00,ENE,60,11.0,13.0,22,-99.99,,,-99.99,,2013-05-14 16:54:00,
2013-05-14 11:03:00,70.0,31.0,-100.00,NE,40,10.0,12.0,23,-99.99,,,-99.99,,2013-05-14 17:03:00,
2013-05-14 11:13:00,70.0,31.0,-100.00,NE,49,9.0,11.0,22,-99.99,,,-99.99,,2013-05-14 17:13:00,
2013-05-14 11:24:00,71.0,30.0,-100.00,NE,40,8.0,11.0,21,-99.99,,,-99.99,,2013-05-14 17:24:00,
2013-05-14 11:32:00,71.0,30.0,-100.00,NE,38,6.0,11.0,21,-99.99,,,-99.99,,2013-05-14 17:32:00,
2013-05-14 11:43:00,72.0,29.0,-100.00,NNE,24,8.0,11.0,20,-99.99,,,-99.99,,2013-05-14 17:43:00,
2013-05-14 11:52:00,74.0,29.0,-100.00,NNE,22,4.0,9.0,18,-99.99,,,-99.99,,2013-05-14 17:52:00,
2013-05-14 12:01:00,72.0,28.0,-100.00,ENE,61,9.0,10.0,19,-99.99,,,-99.99,,2013-05-14 18:01:00,
2013-05-14 12:12:00,73.0,29.0,-100.00,ENE,61,7.0,8.0,18,-99.99,,,-99.99,,2013-05-14 18:12:00,
2013-05-14 12:22:00,75.0,29.0,-100.00,NE,46,5.0,8.0,18,-99.99,,,-99.99,,2013-05-14 18:22:00,
2013-05-14 12:31:00,75.0,26.0,-100.00,East,84,7.0,10.0,16,-99.99,,,-99.99,,2013-05-14 18:31:00,
2013-05-14 12:42:00,77.0,27.0,-100.00,ESE,112,2.0,7.0,15,-99.99,,,-99.99,,2013-05-14 18:42:00,
2013-05-14 12:52:00,78.0,25.0,-100.00,NW,316,2.0,5.0,14,-99.99,,,-99.99,,2013-05-14 18:52:00,
2013-05-14 13:01:00,79.0,29.0,-100.00,East,98,2.0,5.0,15,-99.99,,,-99.99,,2013-05-14 19:01:00,
2013-05-14 13:11:00,79.0,26.0,-100.00,NE,44,5.0,7.0,14,-99.99,,,-99.99,,2013-05-14 19:11:00,
2013-05-14 13:21:00,78.0,25.0,-100.00,SE,139,7.0,9.0,13,-99.99,,,-99.99,,2013-05-14 19:21:00,
2013-05-14 13:31:00,81.0,25.0,-100.00,South,172,1.0,5.0,12,-99.99,,,-99.99,,2013-05-14 19:31:00,
2013-05-14 13:41:00,79.0,25.0,-100.00,North,355,5.0,10.0,13,-99.99,,,-99.99,,2013-05-14 19:41:00,
2013-05-14 13:52:00,82.0,25.0,-100.00,South,176,1.0,4.0,12,-99.99,,,-99.99,,2013-05-14 19:52:00,
2013-05-14 14:02:00,78.0,24.0,-100.00,NNE,13,7.0,9.0,13,-99.99,,,-99.99,,2013-05-14 20:02:00,
2013-05-14 14:11:00,77.0,23.0,-100.00,NNE,19,5.0,8.0,13,-99.99,,,-99.99,,2013-05-14 20:11:00,
2013-05-14 14:22:00,78.0,23.0,-100.00,NNE,13,3.0,7.0,13,-99.99,,,-99.99,,2013-05-14 20:22:00,
2013-05-14 14:32:00,78.0,23.0,-100.00,NNE,13,3.0,7.0,13,-99.99,,,-99.99,,2013-05-14 20:32:00,
2013-05-14 14:44:00,79.0,23.0,-100.00,East,95,6.0,9.0,12,-99.99,,,-99.99,,2013-05-14 20:44:00,
2013-05-14 14:51:00,79.0,22.0,-100.00,ENE,74,4.0,13.0,11,-99.99,,,-99.99,,2013-05-14 20:51:00,
2013-05-14 15:03:00,79.0,22.0,-100.00,East,81,3.0,7.0,11,-99.99,,,-99.99,,2013-05-14 21:03:00,
2013-05-14 15:12:00,83.0,21.0,-100.00,SE,144,1.0,4.0,10,-99.99,,,-99.99,,2013-05-14 21:12:00,
2013-05-14 15:22:00,79.0,21.0,-100.00,WNW,286,3.0,7.0,11,-99.99,,,-99.99,,2013-05-14 21:22:00,
2013-05-14 15:33:00,79.0,22.0,-100.00,NW,311,11.0,14.0,11,-99.99,,,-99.99,,2013-05-14 21:33:00,
2013-05-14 15:42:00,79.0,22.0,-100.00,NW,311,11.0,14.0,11,-99.99,,,-99.99,,2013-05-14 21:42:00,
2013-05-14 15:52:00,80.0,22.0,-100.00,NNE,26,10.0,14.0,11,-99.99,,,-99.99,,2013-05-14 21:52:00,
2013-05-14 16:03:00,79.0,22.0,-100.00,NW,306,4.0,6.0,11,-99.99,,,-99.99,,2013-05-14 22:03:00,
2013-05-14 16:13:00,78.0,24.0,-100.00,WNW,287,13.0,17.0,13,-99.99,,,-99.99,,2013-05-14 22:13:00,
2013-05-14 16:24:00,77.0,23.0,-100.00,WNW,285,18.0,21.0,13,-99.99,,,-99.99,,2013-05-14 22:24:00,
2013-05-14 16:34:00,76.0,26.0,-100.00,NW,323,20.0,31.0,15,-99.99,,,-99.99,,2013-05-14 22:34:00,
2013-05-14 16:45:00,75.0,25.0,-100.00,NNW,341,23.0,38.0,15,-99.99,,,-99.99,,2013-05-14 22:45:00,
2013-05-14 16:54:00,76.0,27.0,-100.00,NW,308,21.0,31.0,16,-99.99,,,-99.99,,2013-05-14 22:54:00,
2013-05-14 17:03:00,75.0,24.0,-100.00,NW,311,16.0,19.0,14,-99.99,,,-99.99,,2013-05-14 23:03:00,
2013-05-14 17:12:00,74.0,30.0,-100.00,NW,323,28.0,31.0,19,-99.99,,,-99.99,,2013-05-14 23:12:00,
2013-05-14 17:21:00,74.0,26.0,-100.00,NNW,330,24.0,43.0,16,-99.99,,,-99.99,,2013-05-14 23:21:00,
2013-05-14 17:31:00,74.0,26.0,-100.00,West,259,16.0,22.0,16,-99.99,,,-99.99,,2013-05-14 23:31:00,
2013-05-14 17:44:00,72.0,29.0,-100.00,WSW,255,14.0,34.0,19,-99.99,,,-99.99,,2013-05-14 23:44:00,
2013-05-14 17:52:00,72.0,29.0,-100.00,NNE,15,20.0,27.0,20,-99.99,,,-99.99,,2013-05-14 23:52:00,
2013-05-14 18:01:00,72.0,31.0,-100.00,ENE,69,8.0,16.0,21,-99.99,,,-99.99,,2013-05-15 00:01:00,
2013-05-14 18:11:00,72.0,28.0,-100.00,NE,36,10.0,15.0,19,-99.99,,,-99.99,,2013-05-15 00:11:00,
2013-05-14 18:21:00,73.0,27.0,-100.00,NNE,21,10.0,13.0,18,-99.99,,,-99.99,,2013-05-15 00:21:00,
2013-05-14 18:32:00,73.0,32.0,-100.00,NE,52,7.0,8.0,22,-99.99,,,-99.99,,2013-05-15 00:32:00,
2013-05-14 18:41:00,73.0,32.0,-100.00,NE,52,7.0,8.0,22,-99.99,,,-99.99,,2013-05-15 00:41:00,
2013-05-14 18:51:00,75.0,27.0,-100.00,ENE,59,5.0,9.0,16,-99.99,,,-99.99,,2013-05-15 00:51:00,
2013-05-14 19:01:00,77.0,27.0,-100.00,ESE,102,3.0,5.0,15,-99.99,,,-99.99,,2013-05-15 01:01:00,
2013-05-14 19:11:00,78.0,26.0,-100.00,North,8,2.0,3.0,14,-99.99,,,-99.99,,2013-05-15 01:11:00,
2013-05-14 19:21:00,78.0,25.0,-100.00,WNW,285,2.0,3.0,14,-99.99,,,-99.99,,2013-05-15 01:21:00,
2013-05-14 19:31:00,76.0,28.0,-100.00,SW,236,5.0,8.0,16,-99.99,,,-99.99,,2013-05-15 01:31:00,
2013-05-14 19:42:00,76.0,29.0,-100.00,West,275,7.0,8.0,17,-99.99,,,-99.99,,2013-05-15 01:42:00,
2013-05-14 19:52:00,75.0,31.0,-100.00,WSW,254,10.0,11.0,19,-99.99,,,-99.99,,2013-05-15 01:52:00,
2013-05-14 20:01:00,73.0,31.0,-100.00,WSW,251,7.0,10.0,20,-99.99,,,-99.99,,2013-05-15 02:01:00,
2013-05-14 20:11:00,73.0,32.0,-100.00,West,263,5.0,6.0,22,-99.99,,,-99.99,,2013-05-15 02:11:00,
2013-05-14 20:21:00,72.0,32.0,-100.00,WNW,283,8.0,8.0,22,-99.99,,,-99.99,,2013-05-15 02:21:00,
2013-05-14 20:31:00,71.0,33.0,-100.00,West,261,8.0,8.0,24,-99.99,,,-99.99,,2013-05-15 02:31:00,
2013-05-14 20:42:00,70.0,33.0,-100.00,West,269,8.0,8.0,25,-99.99,,,-99.99,,2013-05-15 02:42:00,
2013-05-14 20:51:00,69.0,31.0,-100.00,West,278,9.0,9.0,24,-99.99,,,-99.99,,2013-05-15 02:51:00,
2013-05-14 21:01:00,67.0,33.0,-100.00,West,269,8.0,8.0,28,-99.99,,,-99.99,,2013-05-15 03:01:00,
2013-05-14 21:12:00,67.0,32.0,-100.00,West,265,9.0,9.0,26,-99.99,,,-99.99,,2013-05-15 03:12:00,
2013-05-14 21:21:00,66.0,32.0,-100.00,West,261,8.0,9.0,28,-99.99,,,-99.99,,2013-05-15 03:21:00,
2013-05-14 21:33:00,66.0,32.0,-100.00,WSW,254,9.0,9.0,27,-99.99,,,-99.99,,2013-05-15 03:33:00,
2013-05-14 21:44:00,64.0,33.0,-100.00,WSW,253,8.0,8.0,30,-99.99,,,-99.99,,2013-05-15 03:44:00,
2013-05-14 21:54:00,65.0,33.0,-100.00,WSW,258,8.0,8.0,29,-99.99,,,-99.99,,2013-05-15 03:54:00,
2013-05-14 22:03:00,66.0,31.0,-100.00,West,268,9.0,9.0,26,-99.99,,,-99.99,,2013-05-15 04:03:00,
2013-05-14 22:12:00,67.0,31.0,-100.00,West,278,6.0,8.0,25,-99.99,,,-99.99,,2013-05-15 04:12:00,
2013-05-14 22:23:00,68.0,31.0,-100.00,West,261,7.0,9.0,25,-99.99,,,-99.99,,2013-05-15 04:23:00,
2013-05-14 22:32:00,65.0,33.0,-100.00,WSW,257,8.0,9.0,30,-99.99,,,-99.99,,2013-05-15 04:32:00,
2013-05-14 22:42:00,65.0,31.0,-100.00,West,262,9.0,10.0,28,-99.99,,,-99.99,,2013-05-15 04:42:00,
2013-05-14 22:52:00,63.0,32.0,-100.00,West,272,9.0,9.0,30,-99.99,,,-99.99,,2013-05-15 04:52:00,
2013-05-14 23:02:00,64.0,31.0,-100.00,West,259,7.0,7.0,28,-99.99,,,-99.99,,2013-05-15 05:02:00,
2013-05-14 23:11:00,65.0,30.0,-100.00,West,266,9.0,9.0,26,-99.99,,,-99.99,,2013-05-15 05:11:00,
2013-05-14 23:22:00,63.0,31.0,-100.00,WSW,256,9.0,9.0,30,-99.99,,,-99.99,,2013-05-15 05:22:00,
2013-05-14 23:32:00,66.0,30.0,-100.00,West,275,10.0,10.0,25,-99.99,,,-99.99,,2013-05-15 05:32:00,
2013-05-14 23:42:00,63.0,30.0,-100.00,West,259,4.0,6.0,28,-99.99,,,-99.99,,2013-05-15 05:42:00,
2013-05-14 23:52:00,63.0,30.0,-100.00,WNW,290,5.0,6.0,28,-99.99,,,-99.99,,2013-05-15 05:52:00,